sensor_id;sensor_type;location;lat;lon;timestamp;P1;durP1;ratioP1;P2;durP2;ratioP2
9657;SDS011;4867;48.112;11.622;2023-08-17T00:00:23;9.90;;;8.17;;
9657;SDS011;4867;48.112;11.622;2023-08-17T00:02:50;10.57;;;8.90;;
9657;SDS011;4867;48.112;11.622;2023-08-17T00:05:18;11.20;;;9.10;;
9657;SDS011;4867;48.112;11.622;2023-08-17T00:07:45;9.70;;;8.80;;
9657;SDS011;4867;48.112;11.622;2023-08-17T00:10:13;9.63;;;8.63;;
9657;SDS011;4867;48.112;11.622;2023-08-17T00:12:41;9.80;;;8.90;;
9657;SDS011;4867;48.112;11.622;2023-08-17T00:15:08;9.70;;;8.80;;
9657;SDS011;4867;48.112;11.622;2023-08-17T00:17:36;12.93;;;8.63;;
9657;SDS011;4867;48.112;11.622;2023-08-17T00:20:03;8.83;;;8.10;;
9657;SDS011;4867;48.112;11.622;2023-08-17T00:22:33;9.53;;;8.73;;
9657;SDS011;4867;48.112;11.622;2023-08-17T00:25:00;10.20;;;8.53;;
9657;SDS011;4867;48.112;11.622;2023-08-17T00:27:31;10.67;;;8.83;;
9657;SDS011;4867;48.112;11.622;2023-08-17T00:29:59;9.00;;;8.30;;
9657;SDS011;4867;48.112;11.622;2023-08-17T00:32:26;9.67;;;7.83;;
9657;SDS011;4867;48.112;11.622;2023-08-17T00:34:53;8.53;;;7.80;;
9657;SDS011;4867;48.112;11.622;2023-08-17T00:37:21;9.33;;;8.37;;
9657;SDS011;4867;48.112;11.622;2023-08-17T00:39:48;9.93;;;8.97;;
9657;SDS011;4867;48.112;11.622;2023-08-17T00:42:16;10.70;;;9.73;;
9657;SDS011;4867;48.112;11.622;2023-08-17T00:44:43;10.03;;;9.07;;
9657;SDS011;4867;48.112;11.622;2023-08-17T00:47:10;10.47;;;9.17;;
9657;SDS011;4867;48.112;11.622;2023-08-17T00:49:38;10.40;;;9.47;;
9657;SDS011;4867;48.112;11.622;2023-08-17T00:52:05;12.53;;;9.70;;
9657;SDS011;4867;48.112;11.622;2023-08-17T00:54:32;10.87;;;9.97;;
9657;SDS011;4867;48.112;11.622;2023-08-17T00:57:00;10.77;;;9.80;;
9657;SDS011;4867;48.112;11.622;2023-08-17T00:59:28;10.77;;;9.73;;
9657;SDS011;4867;48.112;11.622;2023-08-17T01:02:03;10.77;;;9.73;;
9657;SDS011;4867;48.112;11.622;2023-08-17T01:04:31;9.73;;;8.93;;
9657;SDS011;4867;48.112;11.622;2023-08-17T01:06:58;9.97;;;9.00;;
9657;SDS011;4867;48.112;11.622;2023-08-17T01:09:26;10.03;;;9.17;;
9657;SDS011;4867;48.112;11.622;2023-08-17T01:11:57;10.67;;;9.57;;
9657;SDS011;4867;48.112;11.622;2023-08-17T01:17:15;9.97;;;9.07;;
9657;SDS011;4867;48.112;11.622;2023-08-17T01:19:49;10.03;;;9.10;;
9657;SDS011;4867;48.112;11.622;2023-08-17T01:22:17;9.80;;;8.93;;
9657;SDS011;4867;48.112;11.622;2023-08-17T01:24:47;8.77;;;8.07;;
9657;SDS011;4867;48.112;11.622;2023-08-17T01:27:14;9.87;;;8.97;;
9657;SDS011;4867;48.112;11.622;2023-08-17T01:29:42;10.00;;;8.83;;
9657;SDS011;4867;48.112;11.622;2023-08-17T01:32:24;10.63;;;9.60;;
9657;SDS011;4867;48.112;11.622;2023-08-17T01:35:11;10.03;;;9.20;;
9657;SDS011;4867;48.112;11.622;2023-08-17T01:37:47;10.30;;;9.37;;
9657;SDS011;4867;48.112;11.622;2023-08-17T01:40:17;10.80;;;9.70;;
9657;SDS011;4867;48.112;11.622;2023-08-17T01:42:46;10.33;;;9.13;;
9657;SDS011;4867;48.112;11.622;2023-08-17T01:45:14;9.47;;;8.67;;
9657;SDS011;4867;48.112;11.622;2023-08-17T01:47:43;9.87;;;9.00;;
9657;SDS011;4867;48.112;11.622;2023-08-17T01:50:10;10.50;;;8.97;;
9657;SDS011;4867;48.112;11.622;2023-08-17T01:52:37;10.53;;;9.63;;
9657;SDS011;4867;48.112;11.622;2023-08-17T01:55:05;9.53;;;8.77;;
9657;SDS011;4867;48.112;11.622;2023-08-17T01:57:33;9.87;;;9.07;;
9657;SDS011;4867;48.112;11.622;2023-08-17T02:00:00;9.93;;;8.93;;
9657;SDS011;4867;48.112;11.622;2023-08-17T02:02:28;10.10;;;9.10;;
9657;SDS011;4867;48.112;11.622;2023-08-17T02:04:55;10.40;;;9.50;;
9657;SDS011;4867;48.112;11.622;2023-08-17T02:07:22;9.80;;;8.90;;
9657;SDS011;4867;48.112;11.622;2023-08-17T02:09:50;9.83;;;8.80;;
9657;SDS011;4867;48.112;11.622;2023-08-17T02:12:17;10.10;;;9.20;;
9657;SDS011;4867;48.112;11.622;2023-08-17T02:14:45;10.63;;;9.60;;
9657;SDS011;4867;48.112;11.622;2023-08-17T02:17:12;11.67;;;10.30;;
9657;SDS011;4867;48.112;11.622;2023-08-17T02:19:40;11.50;;;10.50;;
9657;SDS011;4867;48.112;11.622;2023-08-17T02:22:07;10.83;;;9.70;;
9657;SDS011;4867;48.112;11.622;2023-08-17T02:24:34;10.53;;;9.60;;
9657;SDS011;4867;48.112;11.622;2023-08-17T02:27:02;10.37;;;9.40;;
9657;SDS011;4867;48.112;11.622;2023-08-17T02:29:29;10.13;;;9.13;;
9657;SDS011;4867;48.112;11.622;2023-08-17T02:31:58;10.47;;;9.37;;
9657;SDS011;4867;48.112;11.622;2023-08-17T02:34:26;10.00;;;9.07;;
9657;SDS011;4867;48.112;11.622;2023-08-17T02:36:53;10.37;;;9.43;;
9657;SDS011;4867;48.112;11.622;2023-08-17T02:39:20;9.90;;;9.10;;
9657;SDS011;4867;48.112;11.622;2023-08-17T02:41:48;9.20;;;8.47;;
9657;SDS011;4867;48.112;11.622;2023-08-17T02:44:18;10.53;;;8.13;;
9657;SDS011;4867;48.112;11.622;2023-08-17T02:46:45;10.00;;;9.00;;
9657;SDS011;4867;48.112;11.622;2023-08-17T02:49:12;11.07;;;9.40;;
9657;SDS011;4867;48.112;11.622;2023-08-17T02:51:39;9.20;;;8.30;;
9657;SDS011;4867;48.112;11.622;2023-08-17T02:54:07;10.30;;;8.43;;
9657;SDS011;4867;48.112;11.622;2023-08-17T02:56:34;10.43;;;9.53;;
9657;SDS011;4867;48.112;11.622;2023-08-17T02:59:01;10.83;;;9.93;;
9657;SDS011;4867;48.112;11.622;2023-08-17T03:01:28;11.57;;;10.47;;
9657;SDS011;4867;48.112;11.622;2023-08-17T03:03:57;11.07;;;9.97;;
9657;SDS011;4867;48.112;11.622;2023-08-17T03:06:25;10.27;;;9.27;;
9657;SDS011;4867;48.112;11.622;2023-08-17T03:08:52;11.30;;;9.90;;
9657;SDS011;4867;48.112;11.622;2023-08-17T03:11:20;10.90;;;9.90;;
9657;SDS011;4867;48.112;11.622;2023-08-17T03:13:48;10.07;;;8.93;;
9657;SDS011;4867;48.112;11.622;2023-08-17T03:16:15;10.10;;;9.10;;
9657;SDS011;4867;48.112;11.622;2023-08-17T03:18:42;9.93;;;9.03;;
9657;SDS011;4867;48.112;11.622;2023-08-17T03:21:12;12.70;;;10.07;;
9657;SDS011;4867;48.112;11.622;2023-08-17T03:23:39;10.20;;;9.10;;
9657;SDS011;4867;48.112;11.622;2023-08-17T03:26:07;10.50;;;9.60;;
9657;SDS011;4867;48.112;11.622;2023-08-17T03:28:35;9.53;;;8.83;;
9657;SDS011;4867;48.112;11.622;2023-08-17T03:31:02;9.63;;;8.77;;
9657;SDS011;4867;48.112;11.622;2023-08-17T03:33:30;9.70;;;8.80;;
9657;SDS011;4867;48.112;11.622;2023-08-17T03:35:57;10.13;;;9.23;;
9657;SDS011;4867;48.112;11.622;2023-08-17T03:38:26;10.00;;;9.10;;
9657;SDS011;4867;48.112;11.622;2023-08-17T03:40:54;9.67;;;8.77;;
9657;SDS011;4867;48.112;11.622;2023-08-17T03:43:23;10.80;;;9.90;;
9657;SDS011;4867;48.112;11.622;2023-08-17T03:45:50;10.77;;;9.77;;
9657;SDS011;4867;48.112;11.622;2023-08-17T03:48:18;10.30;;;9.43;;
9657;SDS011;4867;48.112;11.622;2023-08-17T03:50:45;10.00;;;9.10;;
9657;SDS011;4867;48.112;11.622;2023-08-17T03:53:12;9.80;;;8.90;;
9657;SDS011;4867;48.112;11.622;2023-08-17T03:55:43;10.53;;;9.47;;
9657;SDS011;4867;48.112;11.622;2023-08-17T03:58:14;10.17;;;9.07;;
9657;SDS011;4867;48.112;11.622;2023-08-17T04:00:42;9.97;;;9.13;;
9657;SDS011;4867;48.112;11.622;2023-08-17T04:03:15;10.67;;;9.60;;
9657;SDS011;4867;48.112;11.622;2023-08-17T04:05:42;9.83;;;8.93;;
9657;SDS011;4867;48.112;11.622;2023-08-17T04:08:10;7.60;;;6.97;;
9657;SDS011;4867;48.112;11.622;2023-08-17T04:10:38;8.00;;;7.30;;
9657;SDS011;4867;48.112;11.622;2023-08-17T04:13:06;8.87;;;8.17;;
9657;SDS011;4867;48.112;11.622;2023-08-17T04:15:33;9.27;;;8.47;;
9657;SDS011;4867;48.112;11.622;2023-08-17T04:18:00;11.07;;;9.67;;
9657;SDS011;4867;48.112;11.622;2023-08-17T04:20:28;10.60;;;9.60;;
9657;SDS011;4867;48.112;11.622;2023-08-17T04:22:55;9.97;;;9.07;;
9657;SDS011;4867;48.112;11.622;2023-08-17T04:25:22;11.73;;;10.00;;
9657;SDS011;4867;48.112;11.622;2023-08-17T04:27:51;9.97;;;8.97;;
9657;SDS011;4867;48.112;11.622;2023-08-17T04:30:18;9.70;;;8.90;;
9657;SDS011;4867;48.112;11.622;2023-08-17T04:32:53;9.90;;;9.10;;
9657;SDS011;4867;48.112;11.622;2023-08-17T04:35:20;10.73;;;9.83;;
9657;SDS011;4867;48.112;11.622;2023-08-17T04:37:48;12.40;;;9.73;;
9657;SDS011;4867;48.112;11.622;2023-08-17T04:40:15;9.50;;;8.60;;
9657;SDS011;4867;48.112;11.622;2023-08-17T04:42:43;10.07;;;9.23;;
9657;SDS011;4867;48.112;11.622;2023-08-17T04:45:10;8.77;;;8.07;;
9657;SDS011;4867;48.112;11.622;2023-08-17T04:47:40;9.50;;;8.70;;
9657;SDS011;4867;48.112;11.622;2023-08-17T04:50:08;9.70;;;8.80;;
9657;SDS011;4867;48.112;11.622;2023-08-17T04:52:35;10.10;;;9.10;;
9657;SDS011;4867;48.112;11.622;2023-08-17T04:55:02;10.50;;;9.50;;
9657;SDS011;4867;48.112;11.622;2023-08-17T04:57:31;10.03;;;9.23;;
9657;SDS011;4867;48.112;11.622;2023-08-17T05:00:00;9.90;;;9.00;;
9657;SDS011;4867;48.112;11.622;2023-08-17T05:02:28;10.27;;;9.27;;
9657;SDS011;4867;48.112;11.622;2023-08-17T05:04:56;9.93;;;9.13;;
9657;SDS011;4867;48.112;11.622;2023-08-17T05:07:23;10.33;;;9.53;;
9657;SDS011;4867;48.112;11.622;2023-08-17T05:09:53;9.50;;;8.70;;
9657;SDS011;4867;48.112;11.622;2023-08-17T05:12:21;9.67;;;8.90;;
9657;SDS011;4867;48.112;11.622;2023-08-17T05:14:48;10.20;;;9.37;;
9657;SDS011;4867;48.112;11.622;2023-08-17T05:17:16;10.03;;;9.17;;
9657;SDS011;4867;48.112;11.622;2023-08-17T05:19:43;9.83;;;9.10;;
9657;SDS011;4867;48.112;11.622;2023-08-17T05:22:11;9.30;;;8.50;;
9657;SDS011;4867;48.112;11.622;2023-08-17T05:24:39;10.50;;;9.53;;
9657;SDS011;4867;48.112;11.622;2023-08-17T05:27:07;10.53;;;9.23;;
9657;SDS011;4867;48.112;11.622;2023-08-17T05:29:36;10.80;;;9.80;;
9657;SDS011;4867;48.112;11.622;2023-08-17T05:32:04;11.27;;;10.00;;
9657;SDS011;4867;48.112;11.622;2023-08-17T05:34:32;11.27;;;10.27;;
9657;SDS011;4867;48.112;11.622;2023-08-17T05:36:59;10.20;;;9.20;;
9657;SDS011;4867;48.112;11.622;2023-08-17T05:39:28;10.60;;;9.63;;
9657;SDS011;4867;48.112;11.622;2023-08-17T05:41:56;10.33;;;9.50;;
9657;SDS011;4867;48.112;11.622;2023-08-17T05:44:23;11.17;;;10.17;;
9657;SDS011;4867;48.112;11.622;2023-08-17T05:46:50;9.90;;;9.00;;
9657;SDS011;4867;48.112;11.622;2023-08-17T05:49:17;9.80;;;8.80;;
9657;SDS011;4867;48.112;11.622;2023-08-17T05:51:45;10.47;;;9.47;;
9657;SDS011;4867;48.112;11.622;2023-08-17T05:54:13;10.60;;;9.70;;
9657;SDS011;4867;48.112;11.622;2023-08-17T05:56:40;10.27;;;9.30;;
9657;SDS011;4867;48.112;11.622;2023-08-17T05:59:13;10.20;;;9.20;;
9657;SDS011;4867;48.112;11.622;2023-08-17T06:01:41;11.07;;;9.00;;
9657;SDS011;4867;48.112;11.622;2023-08-17T06:04:08;9.90;;;8.93;;
9657;SDS011;4867;48.112;11.622;2023-08-17T06:06:35;10.10;;;9.00;;
9657;SDS011;4867;48.112;11.622;2023-08-17T06:09:02;9.20;;;8.37;;
9657;SDS011;4867;48.112;11.622;2023-08-17T06:11:31;9.10;;;8.10;;
9657;SDS011;4867;48.112;11.622;2023-08-17T06:13:58;8.53;;;7.60;;
9657;SDS011;4867;48.112;11.622;2023-08-17T06:16:25;8.80;;;7.87;;
9657;SDS011;4867;48.112;11.622;2023-08-17T06:18:53;8.83;;;8.03;;
9657;SDS011;4867;48.112;11.622;2023-08-17T06:21:20;9.17;;;7.40;;
9657;SDS011;4867;48.112;11.622;2023-08-17T06:23:47;8.13;;;7.43;;
9657;SDS011;4867;48.112;11.622;2023-08-17T06:26:14;7.93;;;7.23;;
9657;SDS011;4867;48.112;11.622;2023-08-17T06:28:41;8.23;;;7.43;;
9657;SDS011;4867;48.112;11.622;2023-08-17T06:31:09;7.97;;;7.37;;
9657;SDS011;4867;48.112;11.622;2023-08-17T06:33:36;9.87;;;8.80;;
9657;SDS011;4867;48.112;11.622;2023-08-17T06:36:03;8.80;;;7.93;;
9657;SDS011;4867;48.112;11.622;2023-08-17T06:38:31;7.73;;;7.03;;
9657;SDS011;4867;48.112;11.622;2023-08-17T06:40:58;7.47;;;6.87;;
9657;SDS011;4867;48.112;11.622;2023-08-17T06:43:25;7.87;;;7.27;;
9657;SDS011;4867;48.112;11.622;2023-08-17T06:45:53;7.07;;;6.37;;
9657;SDS011;4867;48.112;11.622;2023-08-17T06:48:20;7.20;;;6.60;;
9657;SDS011;4867;48.112;11.622;2023-08-17T06:50:47;6.93;;;6.33;;
9657;SDS011;4867;48.112;11.622;2023-08-17T06:53:14;7.77;;;7.00;;
9657;SDS011;4867;48.112;11.622;2023-08-17T06:55:42;7.93;;;7.17;;
9657;SDS011;4867;48.112;11.622;2023-08-17T06:58:09;7.77;;;6.70;;
9657;SDS011;4867;48.112;11.622;2023-08-17T07:00:36;8.00;;;7.20;;
9657;SDS011;4867;48.112;11.622;2023-08-17T07:03:05;7.60;;;7.00;;
9657;SDS011;4867;48.112;11.622;2023-08-17T07:05:33;7.63;;;6.93;;
9657;SDS011;4867;48.112;11.622;2023-08-17T07:08:01;7.40;;;6.73;;
9657;SDS011;4867;48.112;11.622;2023-08-17T07:10:28;7.17;;;6.47;;
9657;SDS011;4867;48.112;11.622;2023-08-17T07:12:56;7.88;;;7.18;;
9657;SDS011;4867;48.112;11.622;2023-08-17T07:15:23;7.83;;;7.23;;
9657;SDS011;4867;48.112;11.622;2023-08-17T07:17:50;7.93;;;7.30;;
9657;SDS011;4867;48.112;11.622;2023-08-17T07:20:17;7.80;;;7.13;;
9657;SDS011;4867;48.112;11.622;2023-08-17T07:22:44;8.40;;;7.18;;
9657;SDS011;4867;48.112;11.622;2023-08-17T07:25:12;7.50;;;6.90;;
9657;SDS011;4867;48.112;11.622;2023-08-17T07:27:39;8.57;;;7.78;;
9657;SDS011;4867;48.112;11.622;2023-08-17T07:30:07;8.02;;;7.32;;
9657;SDS011;4867;48.112;11.622;2023-08-17T07:32:35;7.77;;;6.97;;
9657;SDS011;4867;48.112;11.622;2023-08-17T07:35:02;8.02;;;7.35;;
9657;SDS011;4867;48.112;11.622;2023-08-17T07:37:31;7.50;;;6.72;;
9657;SDS011;4867;48.112;11.622;2023-08-17T07:40:01;9.87;;;7.47;;
9657;SDS011;4867;48.112;11.622;2023-08-17T07:42:31;8.20;;;7.50;;
9657;SDS011;4867;48.112;11.622;2023-08-17T07:44:59;8.65;;;7.72;;
9657;SDS011;4867;48.112;11.622;2023-08-17T07:47:26;9.35;;;6.80;;
9657;SDS011;4867;48.112;11.622;2023-08-17T07:49:54;7.50;;;6.90;;
9657;SDS011;4867;48.112;11.622;2023-08-17T07:52:21;9.15;;;6.85;;
9657;SDS011;4867;48.112;11.622;2023-08-17T07:54:48;8.23;;;6.75;;
9657;SDS011;4867;48.112;11.622;2023-08-17T07:57:16;7.82;;;7.15;;
9657;SDS011;4867;48.112;11.622;2023-08-17T07:59:43;7.45;;;6.90;;
9657;SDS011;4867;48.112;11.622;2023-08-17T08:02:10;7.50;;;6.78;;
9657;SDS011;4867;48.112;11.622;2023-08-17T08:04:37;8.45;;;7.05;;
9657;SDS011;4867;48.112;11.622;2023-08-17T08:07:05;9.18;;;7.10;;
9657;SDS011;4867;48.112;11.622;2023-08-17T08:09:32;7.40;;;6.70;;
9657;SDS011;4867;48.112;11.622;2023-08-17T08:12:00;7.65;;;6.63;;
9657;SDS011;4867;48.112;11.622;2023-08-17T08:14:27;7.70;;;7.10;;
9657;SDS011;4867;48.112;11.622;2023-08-17T08:16:54;8.63;;;6.93;;
9657;SDS011;4867;48.112;11.622;2023-08-17T08:19:21;7.38;;;6.57;;
9657;SDS011;4867;48.112;11.622;2023-08-17T08:21:49;7.85;;;7.00;;
9657;SDS011;4867;48.112;11.622;2023-08-17T08:24:16;6.93;;;6.32;;
9657;SDS011;4867;48.112;11.622;2023-08-17T08:27:02;7.60;;;6.97;;
9657;SDS011;4867;48.112;11.622;2023-08-17T08:29:30;7.50;;;7.00;;
9657;SDS011;4867;48.112;11.622;2023-08-17T08:31:57;7.53;;;7.03;;
9657;SDS011;4867;48.112;11.622;2023-08-17T08:34:26;7.57;;;6.88;;
9657;SDS011;4867;48.112;11.622;2023-08-17T08:36:53;7.80;;;7.10;;
9657;SDS011;4867;48.112;11.622;2023-08-17T08:39:21;7.68;;;7.07;;
9657;SDS011;4867;48.112;11.622;2023-08-17T08:41:51;7.45;;;6.85;;
9657;SDS011;4867;48.112;11.622;2023-08-17T08:44:19;7.82;;;7.13;;
9657;SDS011;4867;48.112;11.622;2023-08-17T08:46:46;7.60;;;6.90;;
9657;SDS011;4867;48.112;11.622;2023-08-17T08:49:18;7.88;;;7.03;;
9657;SDS011;4867;48.112;11.622;2023-08-17T08:51:50;8.32;;;6.40;;
9657;SDS011;4867;48.112;11.622;2023-08-17T08:54:22;7.35;;;6.65;;
9657;SDS011;4867;48.112;11.622;2023-08-17T08:56:54;7.05;;;6.45;;
9657;SDS011;4867;48.112;11.622;2023-08-17T08:59:28;7.40;;;6.80;;
9657;SDS011;4867;48.112;11.622;2023-08-17T09:01:55;7.30;;;6.60;;
9657;SDS011;4867;48.112;11.622;2023-08-17T09:04:24;7.22;;;6.63;;
9657;SDS011;4867;48.112;11.622;2023-08-17T09:06:52;6.85;;;6.30;;
9657;SDS011;4867;48.112;11.622;2023-08-17T09:09:21;7.60;;;7.00;;
9657;SDS011;4867;48.112;11.622;2023-08-17T09:11:54;7.57;;;6.85;;
9657;SDS011;4867;48.112;11.622;2023-08-17T09:14:21;6.65;;;6.15;;
9657;SDS011;4867;48.112;11.622;2023-08-17T09:16:49;8.10;;;6.78;;
9657;SDS011;4867;48.112;11.622;2023-08-17T09:19:16;6.20;;;5.70;;
9657;SDS011;4867;48.112;11.622;2023-08-17T09:21:45;6.45;;;5.90;;
9657;SDS011;4867;48.112;11.622;2023-08-17T09:24:17;5.75;;;5.35;;
9657;SDS011;4867;48.112;11.622;2023-08-17T09:26:44;6.45;;;5.85;;
9657;SDS011;4867;48.112;11.622;2023-08-17T09:29:18;5.85;;;5.20;;
9657;SDS011;4867;48.112;11.622;2023-08-17T09:31:47;5.68;;;5.22;;
9657;SDS011;4867;48.112;11.622;2023-08-17T09:34:14;5.70;;;5.20;;
9657;SDS011;4867;48.112;11.622;2023-08-17T09:36:48;5.60;;;5.10;;
9657;SDS011;4867;48.112;11.622;2023-08-17T09:39:15;6.53;;;5.40;;
9657;SDS011;4867;48.112;11.622;2023-08-17T09:41:43;6.10;;;5.55;;
9657;SDS011;4867;48.112;11.622;2023-08-17T09:44:11;6.53;;;6.03;;
9657;SDS011;4867;48.112;11.622;2023-08-17T09:46:38;6.15;;;5.55;;
9657;SDS011;4867;48.112;11.622;2023-08-17T09:49:08;6.63;;;5.82;;
9657;SDS011;4867;48.112;11.622;2023-08-17T09:51:36;7.95;;;5.68;;
9657;SDS011;4867;48.112;11.622;2023-08-17T09:54:19;5.57;;;5.13;;
9657;SDS011;4867;48.112;11.622;2023-08-17T09:56:50;6.47;;;5.30;;
9657;SDS011;4867;48.112;11.622;2023-08-17T09:59:18;6.35;;;5.57;;
9657;SDS011;4867;48.112;11.622;2023-08-17T10:01:48;6.10;;;5.60;;
9657;SDS011;4867;48.112;11.622;2023-08-17T10:04:23;5.60;;;5.10;;
9657;SDS011;4867;48.112;11.622;2023-08-17T10:06:58;5.97;;;5.50;;
9657;SDS011;4867;48.112;11.622;2023-08-17T10:09:28;6.32;;;5.72;;
9657;SDS011;4867;48.112;11.622;2023-08-17T10:12:06;5.95;;;5.35;;
9657;SDS011;4867;48.112;11.622;2023-08-17T10:14:39;6.00;;;5.57;;
9657;SDS011;4867;48.112;11.622;2023-08-17T10:17:14;6.50;;;5.90;;
9657;SDS011;4867;48.112;11.622;2023-08-17T10:19:49;6.57;;;5.97;;
9657;SDS011;4867;48.112;11.622;2023-08-17T10:24:57;6.30;;;5.80;;
9657;SDS011;4867;48.112;11.622;2023-08-17T10:27:26;6.05;;;5.50;;
9657;SDS011;4867;48.112;11.622;2023-08-17T10:29:54;6.00;;;5.50;;
9657;SDS011;4867;48.112;11.622;2023-08-17T10:32:22;6.65;;;5.78;;
9657;SDS011;4867;48.112;11.622;2023-08-17T10:34:51;6.20;;;5.60;;
9657;SDS011;4867;48.112;11.622;2023-08-17T10:37:20;7.63;;;6.15;;
9657;SDS011;4867;48.112;11.622;2023-08-17T10:39:48;6.53;;;5.93;;
9657;SDS011;4867;48.112;11.622;2023-08-17T10:42:29;6.97;;;5.72;;
9657;SDS011;4867;48.112;11.622;2023-08-17T10:44:58;6.93;;;6.22;;
9657;SDS011;4867;48.112;11.622;2023-08-17T10:47:31;5.90;;;5.50;;
9657;SDS011;4867;48.112;11.622;2023-08-17T10:50:05;6.05;;;5.43;;
9657;SDS011;4867;48.112;11.622;2023-08-17T10:52:47;6.78;;;6.28;;
9657;SDS011;4867;48.112;11.622;2023-08-17T10:55:16;6.00;;;5.60;;
9657;SDS011;4867;48.112;11.622;2023-08-17T10:57:45;5.85;;;5.45;;
9657;SDS011;4867;48.112;11.622;2023-08-17T11:02:54;6.45;;;5.85;;
9657;SDS011;4867;48.112;11.622;2023-08-17T11:08:09;7.20;;;5.57;;
9657;SDS011;4867;48.112;11.622;2023-08-17T11:10:40;6.65;;;6.10;;
9657;SDS011;4867;48.112;11.622;2023-08-17T11:13:13;6.10;;;5.53;;
9657;SDS011;4867;48.112;11.622;2023-08-17T11:15:41;6.05;;;5.50;;
9657;SDS011;4867;48.112;11.622;2023-08-17T11:18:09;6.20;;;5.60;;
9657;SDS011;4867;48.112;11.622;2023-08-17T11:20:39;6.20;;;5.55;;
9657;SDS011;4867;48.112;11.622;2023-08-17T11:23:09;6.32;;;5.72;;
9657;SDS011;4867;48.112;11.622;2023-08-17T11:25:37;6.38;;;5.93;;
9657;SDS011;4867;48.112;11.622;2023-08-17T11:28:08;7.03;;;6.22;;
9657;SDS011;4867;48.112;11.622;2023-08-17T11:30:36;6.75;;;6.10;;
9657;SDS011;4867;48.112;11.622;2023-08-17T11:33:06;7.25;;;6.72;;
9657;SDS011;4867;48.112;11.622;2023-08-17T11:35:35;7.82;;;7.22;;
9657;SDS011;4867;48.112;11.622;2023-08-17T11:38:03;8.05;;;7.38;;
9657;SDS011;4867;48.112;11.622;2023-08-17T11:40:35;8.35;;;7.53;;
9657;SDS011;4867;48.112;11.622;2023-08-17T11:43:03;7.93;;;7.25;;
9657;SDS011;4867;48.112;11.622;2023-08-17T11:45:30;8.07;;;7.28;;
9657;SDS011;4867;48.112;11.622;2023-08-17T11:47:59;7.93;;;7.13;;
9657;SDS011;4867;48.112;11.622;2023-08-17T11:50:27;8.32;;;7.18;;
9657;SDS011;4867;48.112;11.622;2023-08-17T11:52:55;7.57;;;6.93;;
9657;SDS011;4867;48.112;11.622;2023-08-17T11:55:25;8.48;;;7.78;;
9657;SDS011;4867;48.112;11.622;2023-08-17T11:57:53;8.82;;;8.00;;
9657;SDS011;4867;48.112;11.622;2023-08-17T12:00:20;8.00;;;7.30;;
9657;SDS011;4867;48.112;11.622;2023-08-17T12:02:49;8.07;;;7.38;;
9657;SDS011;4867;48.112;11.622;2023-08-17T12:05:19;8.70;;;7.90;;
9657;SDS011;4867;48.112;11.622;2023-08-17T12:07:50;7.88;;;7.20;;
9657;SDS011;4867;48.112;11.622;2023-08-17T12:10:20;8.52;;;7.93;;
9657;SDS011;4867;48.112;11.622;2023-08-17T12:12:49;8.52;;;7.93;;
9657;SDS011;4867;48.112;11.622;2023-08-17T12:15:16;7.88;;;7.28;;
9657;SDS011;4867;48.112;11.622;2023-08-17T12:17:45;8.60;;;7.80;;
9657;SDS011;4867;48.112;11.622;2023-08-17T12:20:20;9.23;;;7.93;;
9657;SDS011;4867;48.112;11.622;2023-08-17T12:22:48;8.30;;;7.65;;
9657;SDS011;4867;48.112;11.622;2023-08-17T12:25:15;9.32;;;8.52;;
9657;SDS011;4867;48.112;11.622;2023-08-17T12:27:42;8.43;;;7.78;;
9657;SDS011;4867;48.112;11.622;2023-08-17T12:30:27;9.07;;;8.38;;
9657;SDS011;4867;48.112;11.622;2023-08-17T12:32:56;9.48;;;7.95;;
9657;SDS011;4867;48.112;11.622;2023-08-17T12:35:25;8.50;;;7.90;;
9657;SDS011;4867;48.112;11.622;2023-08-17T12:37:53;8.50;;;7.80;;
9657;SDS011;4867;48.112;11.622;2023-08-17T12:40:21;8.75;;;7.90;;
9657;SDS011;4867;48.112;11.622;2023-08-17T12:42:49;8.27;;;7.57;;
9657;SDS011;4867;48.112;11.622;2023-08-17T12:45:16;8.40;;;7.68;;
9657;SDS011;4867;48.112;11.622;2023-08-17T12:47:44;8.27;;;7.47;;
9657;SDS011;4867;48.112;11.622;2023-08-17T12:50:11;8.23;;;7.53;;
9657;SDS011;4867;48.112;11.622;2023-08-17T12:52:38;8.30;;;7.65;;
9657;SDS011;4867;48.112;11.622;2023-08-17T12:55:06;8.35;;;7.53;;
9657;SDS011;4867;48.112;11.622;2023-08-17T12:57:33;8.35;;;7.53;;
9657;SDS011;4867;48.112;11.622;2023-08-17T13:00:00;8.27;;;7.50;;
9657;SDS011;4867;48.112;11.622;2023-08-17T13:02:28;7.97;;;7.35;;
9657;SDS011;4867;48.112;11.622;2023-08-17T13:04:55;7.65;;;7.03;;
9657;SDS011;4867;48.112;11.622;2023-08-17T13:07:23;7.70;;;7.10;;
9657;SDS011;4867;48.112;11.622;2023-08-17T13:09:50;7.68;;;6.70;;
9657;SDS011;4867;48.112;11.622;2023-08-17T13:12:18;7.15;;;6.65;;
9657;SDS011;4867;48.112;11.622;2023-08-17T13:14:45;7.60;;;6.90;;
9657;SDS011;4867;48.112;11.622;2023-08-17T13:17:12;8.93;;;6.78;;
9657;SDS011;4867;48.112;11.622;2023-08-17T13:19:41;7.68;;;6.90;;
9657;SDS011;4867;48.112;11.622;2023-08-17T13:22:08;7.60;;;7.00;;
9657;SDS011;4867;48.112;11.622;2023-08-17T13:24:36;7.65;;;6.95;;
9657;SDS011;4867;48.112;11.622;2023-08-17T13:27:04;7.70;;;7.05;;
9657;SDS011;4867;48.112;11.622;2023-08-17T13:29:32;7.95;;;6.70;;
9657;SDS011;4867;48.112;11.622;2023-08-17T13:31:59;6.75;;;6.25;;
9657;SDS011;4867;48.112;11.622;2023-08-17T13:34:26;6.63;;;5.78;;
9657;SDS011;4867;48.112;11.622;2023-08-17T13:36:54;7.07;;;6.35;;
9657;SDS011;4867;48.112;11.622;2023-08-17T13:39:21;6.70;;;6.07;;
9657;SDS011;4867;48.112;11.622;2023-08-17T13:41:48;6.10;;;5.60;;
9657;SDS011;4867;48.112;11.622;2023-08-17T13:44:15;6.50;;;5.80;;
9657;SDS011;4867;48.112;11.622;2023-08-17T13:46:42;6.53;;;5.90;;
9657;SDS011;4867;48.112;11.622;2023-08-17T13:49:10;5.65;;;5.25;;
9657;SDS011;4867;48.112;11.622;2023-08-17T13:51:37;6.25;;;5.65;;
9657;SDS011;4867;48.112;11.622;2023-08-17T13:54:04;6.03;;;5.63;;
9657;SDS011;4867;48.112;11.622;2023-08-17T13:56:31;6.63;;;6.05;;
9657;SDS011;4867;48.112;11.622;2023-08-17T13:58:58;6.85;;;6.15;;
9657;SDS011;4867;48.112;11.622;2023-08-17T14:01:26;6.78;;;6.18;;
9657;SDS011;4867;48.112;11.622;2023-08-17T14:03:53;6.90;;;6.28;;
9657;SDS011;4867;48.112;11.622;2023-08-17T14:06:21;5.90;;;5.20;;
9657;SDS011;4867;48.112;11.622;2023-08-17T14:08:48;5.53;;;5.13;;
9657;SDS011;4867;48.112;11.622;2023-08-17T14:11:15;6.60;;;5.50;;
9657;SDS011;4867;48.112;11.622;2023-08-17T14:13:42;6.68;;;6.10;;
9657;SDS011;4867;48.112;11.622;2023-08-17T14:16:10;5.97;;;5.47;;
9657;SDS011;4867;48.112;11.622;2023-08-17T14:18:37;6.82;;;5.70;;
9657;SDS011;4867;48.112;11.622;2023-08-17T14:21:04;6.80;;;6.20;;
9657;SDS011;4867;48.112;11.622;2023-08-17T14:23:31;6.93;;;6.32;;
9657;SDS011;4867;48.112;11.622;2023-08-17T14:25:58;7.47;;;6.72;;
9657;SDS011;4867;48.112;11.622;2023-08-17T14:28:26;7.10;;;6.40;;
9657;SDS011;4867;48.112;11.622;2023-08-17T14:30:53;8.55;;;7.38;;
9657;SDS011;4867;48.112;11.622;2023-08-17T14:33:20;7.68;;;7.03;;
9657;SDS011;4867;48.112;11.622;2023-08-17T14:35:48;8.40;;;7.25;;
9657;SDS011;4867;48.112;11.622;2023-08-17T14:38:15;8.02;;;7.32;;
9657;SDS011;4867;48.112;11.622;2023-08-17T14:40:43;10.30;;;6.93;;
9657;SDS011;4867;48.112;11.622;2023-08-17T14:43:12;7.68;;;6.95;;
9657;SDS011;4867;48.112;11.622;2023-08-17T14:45:42;7.53;;;7.03;;
9657;SDS011;4867;48.112;11.622;2023-08-17T14:48:10;7.40;;;6.75;;
9657;SDS011;4867;48.112;11.622;2023-08-17T14:50:37;7.53;;;7.00;;
9657;SDS011;4867;48.112;11.622;2023-08-17T14:53:05;8.30;;;7.50;;
9657;SDS011;4867;48.112;11.622;2023-08-17T14:55:33;8.23;;;7.63;;
9657;SDS011;4867;48.112;11.622;2023-08-17T14:58:01;7.80;;;7.00;;
9657;SDS011;4867;48.112;11.622;2023-08-17T15:00:29;8.23;;;7.43;;
9657;SDS011;4867;48.112;11.622;2023-08-17T15:03:00;8.90;;;7.28;;
9657;SDS011;4867;48.112;11.622;2023-08-17T15:05:28;7.75;;;7.05;;
9657;SDS011;4867;48.112;11.622;2023-08-17T15:07:55;8.00;;;7.20;;
9657;SDS011;4867;48.112;11.622;2023-08-17T15:10:22;7.70;;;6.95;;
9657;SDS011;4867;48.112;11.622;2023-08-17T15:12:50;7.78;;;7.18;;
9657;SDS011;4867;48.112;11.622;2023-08-17T15:15:17;7.57;;;6.97;;